createdAt,value
2023-02-08T00:01:16.238Z,7.95
2023-02-08T00:03:44.507Z,8.13
2023-02-08T00:06:13.087Z,8.00
2023-02-08T00:08:41.644Z,9.38
2023-02-08T00:11:11.828Z,8.10
2023-02-08T00:13:42.343Z,8.48
2023-02-08T00:16:11.050Z,9.10
2023-02-08T00:18:38.749Z,8.73
2023-02-08T00:21:17.439Z,9.35
2023-02-08T00:23:45.501Z,9.25
2023-02-08T00:26:13.852Z,9.98
2023-02-08T00:28:41.776Z,9.10
2023-02-08T00:31:09.651Z,8.80
2023-02-08T00:33:37.515Z,9.70
2023-02-08T00:36:08.841Z,8.88
2023-02-08T00:38:36.895Z,8.52
2023-02-08T00:41:05.229Z,8.25
2023-02-08T00:43:33.186Z,8.48
2023-02-08T00:46:01.591Z,8.23
2023-02-08T00:48:29.826Z,7.93
2023-02-08T00:51:00.273Z,8.75
2023-02-08T00:53:28.179Z,9.65
2023-02-08T00:55:57.086Z,7.80
2023-02-08T00:58:24.852Z,8.27
2023-02-08T01:00:54.947Z,8.13
2023-02-08T01:03:24.177Z,8.80
2023-02-08T01:05:52.377Z,9.80
2023-02-08T01:08:23.556Z,9.32
2023-02-08T01:10:51.390Z,9.27
2023-02-08T01:13:19.115Z,9.38
2023-02-08T01:15:46.968Z,9.18
2023-02-08T01:18:14.705Z,8.25
2023-02-08T01:20:42.454Z,8.75
2023-02-08T01:23:10.162Z,6.87
2023-02-08T01:25:37.890Z,8.32
2023-02-08T01:28:06.094Z,8.60
2023-02-08T01:30:33.847Z,8.18
2023-02-08T01:33:01.595Z,9.13
2023-02-08T01:35:29.322Z,8.07
2023-02-08T01:37:57.060Z,8.85
2023-02-08T01:40:24.713Z,9.18
2023-02-08T01:42:52.384Z,7.10
2023-02-08T01:45:26.435Z,8.52
2023-02-08T01:48:14.788Z,7.85
2023-02-08T01:50:51.459Z,7.57
2023-02-08T01:53:19.650Z,7.85
2023-02-08T01:55:53.926Z,9.05
2023-02-08T01:58:23.402Z,8.40
2023-02-08T02:00:51.248Z,9.00
2023-02-08T02:03:21.890Z,9.18
2023-02-08T02:05:58.773Z,9.05
2023-02-08T02:08:26.831Z,8.32
2023-02-08T02:10:54.713Z,8.18
2023-02-08T02:13:24.740Z,8.98
2023-02-08T02:15:52.954Z,7.43
2023-02-08T02:18:30.706Z,8.40
2023-02-08T02:21:23.155Z,7.55
2023-02-08T02:24:31.264Z,7.85
2023-02-08T02:27:26.849Z,8.77
2023-02-08T02:30:31.763Z,6.90
2023-02-08T02:33:11.355Z,8.68
2023-02-08T02:35:54.161Z,7.85
2023-02-08T02:38:55.751Z,7.25
2023-02-08T02:41:50.918Z,9.10
2023-02-08T02:44:38.502Z,8.45
2023-02-08T02:47:32.256Z,9.88
2023-02-08T02:50:26.302Z,8.98
2023-02-08T02:53:20.851Z,7.30
2023-02-08T02:55:57.414Z,8.07
2023-02-08T02:58:26.781Z,8.63
2023-02-08T03:00:59.244Z,9.55
2023-02-08T03:03:31.687Z,8.82
2023-02-08T03:06:06.076Z,7.35
2023-02-08T03:09:13.358Z,8.43
2023-02-08T03:11:46.138Z,8.32
2023-02-08T03:14:19.962Z,8.73
2023-02-08T03:17:02.100Z,8.85
2023-02-08T03:20:13.216Z,8.32
2023-02-08T03:23:02.641Z,7.70
2023-02-08T03:26:01.594Z,8.90
2023-02-08T03:28:59.667Z,7.10
2023-02-08T03:31:47.109Z,8.55
2023-02-08T03:34:28.245Z,7.70
2023-02-08T03:37:09.444Z,6.68
2023-02-08T03:39:40.073Z,6.97
2023-02-08T03:42:16.107Z,7.87
2023-02-08T03:44:53.143Z,7.40
2023-02-08T03:47:28.242Z,9.15
2023-02-08T03:50:00.746Z,8.73
2023-02-08T03:52:31.476Z,8.63
2023-02-08T03:55:07.837Z,8.27
2023-02-08T03:58:14.083Z,7.15
2023-02-08T04:00:46.215Z,8.95
2023-02-08T04:03:21.411Z,9.32
2023-02-08T04:05:50.497Z,9.05
2023-02-08T04:08:18.447Z,7.78
2023-02-08T04:10:48.235Z,8.07
2023-02-08T04:13:16.006Z,8.10
2023-02-08T04:15:45.200Z,8.95
2023-02-08T04:18:12.949Z,9.27
2023-02-08T04:20:40.887Z,8.45
2023-02-08T04:23:08.653Z,8.43
2023-02-08T04:25:36.420Z,8.73
2023-02-08T04:28:04.125Z,7.93
2023-02-08T04:30:31.851Z,8.43
2023-02-08T04:33:01.153Z,9.15
2023-02-08T04:35:28.907Z,8.77
2023-02-08T04:37:56.611Z,9.20
2023-02-08T04:40:24.325Z,9.25
2023-02-08T04:42:52.076Z,8.32
2023-02-08T04:45:19.774Z,8.52
2023-02-08T04:47:47.645Z,8.52
2023-02-08T04:50:16.023Z,7.65
2023-02-08T04:52:43.855Z,8.48
2023-02-08T04:55:11.697Z,9.05
2023-02-08T04:57:39.404Z,9.45
2023-02-08T05:00:07.568Z,8.30
2023-02-08T05:02:35.338Z,8.88
2023-02-08T05:05:03.100Z,8.98
2023-02-08T05:07:31.295Z,9.35
2023-02-08T05:09:58.919Z,8.88
2023-02-08T05:12:26.701Z,8.23
2023-02-08T05:14:54.484Z,8.95
2023-02-08T05:17:22.244Z,7.90
2023-02-08T05:19:50.353Z,7.60
2023-02-08T05:22:18.051Z,8.25
2023-02-08T05:24:45.783Z,8.13
2023-02-08T05:27:13.526Z,8.82
2023-02-08T05:29:41.318Z,7.37
2023-02-08T05:32:09.012Z,7.47
2023-02-08T05:34:38.505Z,8.18
2023-02-08T05:37:06.324Z,7.18
2023-02-08T05:39:34.111Z,7.40
2023-02-08T05:42:01.957Z,7.35
2023-02-08T05:44:29.764Z,8.30
2023-02-08T05:46:57.532Z,8.18
2023-02-08T05:49:25.465Z,8.65
2023-02-08T05:51:53.179Z,7.40
2023-02-08T05:54:20.927Z,7.75
2023-02-08T05:56:48.830Z,7.97
2023-02-08T05:59:16.774Z,9.07
2023-02-08T06:01:44.471Z,7.50
2023-02-08T06:04:12.261Z,7.78
2023-02-08T06:06:40.168Z,8.00
2023-02-08T06:09:08.091Z,8.52
2023-02-08T06:11:37.289Z,7.30
2023-02-08T06:14:05.050Z,7.50
2023-02-08T06:16:32.992Z,8.93
2023-02-08T06:19:00.694Z,8.00
2023-02-08T06:21:29.359Z,7.53
2023-02-08T06:23:57.040Z,8.68
2023-02-08T06:26:24.879Z,7.32
2023-02-08T06:28:52.525Z,7.15
2023-02-08T06:31:20.277Z,7.87
2023-02-08T06:33:48.041Z,8.05
2023-02-08T06:36:16.116Z,7.37
2023-02-08T06:38:44.315Z,7.22
2023-02-08T06:41:12.043Z,8.65
2023-02-08T06:43:40.177Z,7.90
2023-02-08T06:46:09.717Z,7.65
2023-02-08T06:48:37.809Z,7.70
2023-02-08T06:51:05.647Z,6.93
2023-02-08T06:53:33.524Z,8.63
2023-02-08T06:56:01.238Z,7.53
2023-02-08T06:58:28.886Z,8.38
2023-02-08T07:00:56.644Z,8.60
2023-02-08T07:03:24.314Z,7.97
2023-02-08T07:06:04.135Z,9.27
2023-02-08T07:08:34.527Z,7.53
2023-02-08T07:11:07.661Z,7.00
2023-02-08T07:13:35.437Z,7.32
2023-02-08T07:16:03.868Z,7.97
2023-02-08T07:18:31.721Z,9.02
2023-02-08T07:20:59.470Z,7.45
2023-02-08T07:23:27.192Z,8.60
2023-02-08T07:26:06.352Z,7.37
2023-02-08T07:28:34.284Z,9.68
2023-02-08T07:31:07.270Z,7.90
2023-02-08T07:33:35.243Z,7.57
2023-02-08T07:36:04.383Z,7.75
2023-02-08T07:38:34.780Z,7.68
2023-02-08T07:41:10.486Z,6.57
2023-02-08T07:43:39.406Z,7.50
2023-02-08T07:46:12.587Z,7.47
2023-02-08T07:48:40.647Z,7.15
2023-02-08T07:51:09.746Z,7.28
2023-02-08T07:53:37.990Z,8.20
2023-02-08T07:56:05.963Z,7.03
2023-02-08T07:58:33.622Z,7.55
2023-02-08T08:01:09.449Z,8.68
2023-02-08T08:03:43.715Z,8.65
2023-02-08T08:06:11.485Z,8.20
2023-02-08T08:08:39.142Z,8.15
2023-02-08T08:11:07.307Z,9.73
2023-02-08T08:13:35.019Z,8.27
2023-02-08T08:16:02.999Z,8.43
2023-02-08T08:18:30.983Z,8.85
2023-02-08T08:20:58.763Z,9.25
2023-02-08T08:23:26.532Z,8.32
2023-02-08T08:25:54.326Z,7.85
2023-02-08T08:28:22.119Z,7.47
2023-02-08T08:30:50.043Z,7.78
2023-02-08T08:33:17.831Z,7.12
2023-02-08T08:35:48.244Z,8.07
2023-02-08T08:38:16.058Z,9.02
2023-02-08T08:40:43.873Z,7.68
2023-02-08T08:43:11.672Z,7.82
2023-02-08T08:45:39.380Z,7.57
2023-02-08T08:48:07.440Z,8.00
2023-02-08T08:50:35.201Z,9.25
2023-02-08T08:53:02.874Z,8.27
2023-02-08T08:55:30.617Z,8.07
2023-02-08T08:57:58.435Z,7.20
2023-02-08T09:00:26.191Z,8.52
2023-02-08T09:02:54.307Z,8.00
2023-02-08T09:05:22.076Z,7.78
2023-02-08T09:07:49.846Z,7.72
2023-02-08T09:10:17.572Z,7.93
2023-02-08T09:12:45.355Z,7.45
2023-02-08T09:15:12.993Z,8.55
2023-02-08T09:17:40.708Z,9.10
2023-02-08T09:20:08.805Z,7.97
2023-02-08T09:22:36.499Z,9.40
2023-02-08T09:25:04.492Z,7.65
2023-02-08T09:27:32.239Z,8.15
2023-02-08T09:30:00.172Z,8.63
2023-02-08T09:32:27.922Z,7.72
2023-02-08T09:34:55.814Z,8.23
2023-02-08T09:37:23.682Z,8.70
2023-02-08T09:39:51.600Z,8.63
2023-02-08T09:43:18.110Z,8.05
2023-02-08T09:46:00.144Z,7.80
2023-02-08T09:48:40.058Z,7.97
2023-02-08T09:51:42.952Z,8.00
2023-02-08T09:54:22.124Z,9.30
2023-02-08T09:56:51.323Z,7.87
2023-02-08T09:59:30.117Z,9.18
2023-02-08T10:02:03.832Z,8.90
2023-02-08T10:04:38.807Z,9.02
2023-02-08T10:07:06.547Z,8.48
2023-02-08T10:09:34.821Z,8.40
2023-02-08T10:12:32.072Z,8.70
2023-02-08T10:15:24.235Z,8.27
2023-02-08T10:17:52.073Z,9.00
2023-02-08T10:20:29.667Z,8.15
2023-02-08T10:23:41.347Z,8.55
2023-02-08T10:26:15.063Z,8.70
2023-02-08T10:29:13.515Z,8.57
2023-02-08T10:32:05.905Z,9.20
2023-02-08T10:34:39.360Z,8.63
2023-02-08T10:37:36.041Z,8.18
2023-02-08T10:40:31.916Z,9.02
2023-02-08T10:43:04.736Z,9.07
2023-02-08T10:46:03.810Z,7.95
2023-02-08T10:49:12.444Z,7.90
2023-02-08T10:51:40.281Z,9.52
2023-02-08T10:54:11.825Z,8.70
2023-02-08T10:56:48.793Z,9.35
2023-02-08T10:59:24.452Z,9.52
2023-02-08T11:01:54.164Z,10.55
2023-02-08T11:04:21.964Z,8.05
2023-02-08T11:06:51.508Z,8.93
2023-02-08T11:09:22.110Z,8.52
2023-02-08T11:11:53.584Z,8.27
2023-02-08T11:14:35.105Z,9.30
2023-02-08T11:17:23.341Z,10.10
2023-02-08T11:19:52.167Z,10.05
2023-02-08T11:22:23.092Z,9.60
2023-02-08T11:25:03.467Z,9.35
2023-02-08T11:27:33.329Z,10.98
2023-02-08T11:30:19.529Z,9.13
2023-02-08T11:32:50.689Z,9.20
2023-02-08T11:35:25.578Z,9.60
2023-02-08T11:37:59.490Z,8.93
2023-02-08T11:40:35.508Z,9.90
2023-02-08T11:43:05.041Z,9.05
2023-02-08T11:45:36.859Z,9.45
2023-02-08T11:48:06.414Z,9.27
2023-02-08T11:50:37.954Z,9.65
2023-02-08T11:53:08.917Z,8.70
2023-02-08T11:55:37.194Z,9.55
2023-02-08T11:58:19.134Z,9.30
2023-02-08T12:01:07.202Z,8.48
2023-02-08T12:03:41.150Z,10.25
2023-02-08T12:06:17.765Z,8.85
2023-02-08T12:09:08.855Z,10.38
2023-02-08T12:11:43.978Z,8.55
2023-02-08T12:14:30.282Z,9.25
2023-02-08T12:17:17.260Z,8.80
2023-02-08T12:20:05.667Z,8.10
2023-02-08T12:22:33.943Z,8.02
2023-02-08T12:25:23.567Z,8.90
2023-02-08T12:28:06.806Z,8.70
2023-02-08T12:30:53.658Z,8.60
2023-02-08T12:33:46.583Z,8.18
2023-02-08T12:36:31.433Z,8.93
2023-02-08T12:39:33.681Z,7.97
2023-02-08T12:42:27.398Z,9.32
2023-02-08T12:45:17.490Z,9.20
2023-02-08T12:48:04.594Z,7.68
2023-02-08T12:50:45.997Z,7.80
2023-02-08T12:53:32.956Z,8.48
2023-02-08T12:56:12.752Z,8.10
2023-02-08T12:58:51.668Z,8.40
2023-02-08T13:01:38.296Z,9.05
2023-02-08T13:04:10.681Z,8.15
2023-02-08T13:06:50.991Z,8.52
2023-02-08T13:09:35.711Z,7.95
2023-02-08T13:12:15.294Z,8.25
2023-02-08T13:14:52.882Z,7.97
2023-02-08T13:17:25.742Z,8.43
2023-02-08T13:20:04.545Z,8.00
2023-02-08T13:22:38.367Z,8.13
2023-02-08T13:25:16.113Z,8.30
2023-02-08T13:27:43.986Z,8.25
2023-02-08T13:30:20.629Z,7.85
2023-02-08T13:32:51.829Z,7.68
2023-02-08T13:35:28.790Z,8.20
2023-02-08T13:38:34.271Z,8.65
2023-02-08T13:41:19.920Z,7.72
2023-02-08T13:44:24.703Z,8.07
2023-02-08T13:46:53.581Z,8.02
2023-02-08T13:50:10.932Z,7.07
2023-02-08T13:52:48.172Z,6.87
2023-02-08T13:55:34.599Z,8.27
2023-02-08T13:58:06.446Z,8.02
2023-02-08T14:00:38.076Z,7.82
2023-02-08T14:03:08.697Z,6.95
2023-02-08T14:05:45.685Z,6.40
2023-02-08T14:08:25.105Z,7.15
2023-02-08T14:11:15.671Z,7.85
2023-02-08T14:13:56.386Z,7.20
2023-02-08T14:16:32.110Z,7.22
2023-02-08T14:19:03.145Z,7.90
2023-02-08T14:21:44.501Z,7.43
2023-02-08T14:24:25.451Z,7.15
2023-02-08T14:27:09.458Z,6.68
2023-02-08T14:29:38.450Z,7.03
2023-02-08T14:32:06.353Z,7.37
2023-02-08T14:34:40.078Z,7.65
2023-02-08T14:37:07.909Z,6.32
2023-02-08T14:39:38.310Z,6.55
2023-02-08T14:42:09.800Z,7.00
2023-02-08T14:44:40.291Z,7.47
2023-02-08T14:47:26.086Z,7.05
2023-02-08T14:50:06.206Z,6.35
2023-02-08T14:52:35.690Z,6.55
2023-02-08T14:55:17.688Z,6.72
2023-02-08T14:57:45.865Z,7.43
2023-02-08T15:00:35.861Z,8.13
2023-02-08T15:03:06.513Z,7.80
2023-02-08T15:05:47.573Z,6.50
2023-02-08T15:08:22.237Z,6.68
2023-02-08T15:10:50.283Z,6.70
2023-02-08T15:13:25.973Z,6.25
2023-02-08T15:15:56.965Z,8.15
2023-02-08T15:18:29.047Z,8.70
2023-02-08T15:21:08.083Z,9.25
2023-02-08T15:23:35.801Z,9.45
2023-02-08T15:26:06.816Z,9.13
2023-02-08T15:28:37.802Z,9.00
2023-02-08T15:31:07.563Z,9.95
2023-02-08T15:33:35.903Z,9.85
2023-02-08T15:36:29.007Z,9.23
2023-02-08T15:39:00.231Z,9.77
2023-02-08T15:41:30.931Z,9.48
2023-02-08T15:44:08.205Z,11.02
2023-02-08T15:46:36.814Z,10.57
2023-02-08T15:49:04.869Z,10.85
2023-02-08T15:51:33.663Z,9.05
2023-02-08T15:54:01.503Z,9.25
2023-02-08T15:56:42.241Z,10.07
2023-02-08T15:59:22.351Z,9.13
2023-02-08T16:01:51.169Z,9.73
2023-02-08T16:04:19.522Z,9.68
2023-02-08T16:06:54.428Z,11.30
2023-02-08T16:09:26.543Z,9.90
2023-02-08T16:11:57.636Z,10.73
2023-02-08T16:14:29.311Z,10.07
2023-02-08T16:16:59.319Z,11.30
2023-02-08T16:19:32.916Z,10.73
2023-02-08T16:22:22.371Z,10.48
2023-02-08T16:24:51.959Z,10.82
2023-02-08T16:27:31.477Z,10.77
2023-02-08T16:30:00.356Z,10.32
2023-02-08T16:32:27.936Z,10.07
2023-02-08T16:34:55.700Z,10.35
2023-02-08T16:37:36.302Z,12.48
2023-02-08T16:40:06.165Z,10.25
2023-02-08T16:42:40.939Z,10.30
2023-02-08T16:45:13.734Z,10.27
2023-02-08T16:48:10.017Z,10.70
2023-02-08T16:50:45.598Z,10.75
2023-02-08T16:53:13.873Z,10.25
2023-02-08T16:55:41.596Z,10.50
2023-02-08T16:58:15.993Z,10.48
2023-02-08T17:00:44.048Z,11.27
2023-02-08T17:03:11.963Z,10.55
2023-02-08T17:05:41.087Z,10.90
2023-02-08T17:08:14.150Z,11.63
2023-02-08T17:10:42.265Z,10.45
2023-02-08T17:13:20.279Z,9.02
2023-02-08T17:15:51.577Z,10.35
2023-02-08T17:18:19.558Z,10.18
2023-02-08T17:20:47.815Z,10.40
2023-02-08T17:23:16.900Z,10.05
2023-02-08T17:25:45.538Z,9.57
2023-02-08T17:28:19.407Z,9.48
2023-02-08T17:30:49.034Z,10.18
2023-02-08T17:33:20.580Z,9.65
2023-02-08T17:35:50.928Z,12.48
2023-02-08T17:38:20.589Z,13.32
2023-02-08T17:40:48.681Z,12.43
2023-02-08T17:43:16.590Z,11.75
2023-02-08T17:45:45.385Z,12.23
2023-02-08T17:48:16.905Z,11.75
2023-02-08T17:50:48.962Z,11.32
2023-02-08T17:53:17.071Z,11.65
2023-02-08T17:55:46.516Z,12.10
2023-02-08T17:58:14.526Z,11.43
2023-02-08T18:00:42.504Z,11.38
2023-02-08T18:03:10.368Z,13.13
2023-02-08T18:05:38.616Z,11.95
2023-02-08T18:08:06.648Z,10.90
2023-02-08T18:10:34.376Z,11.30
2023-02-08T18:13:02.176Z,11.75
2023-02-08T18:15:30.081Z,11.40
2023-02-08T18:17:57.744Z,11.12
2023-02-08T18:20:25.504Z,10.93
2023-02-08T18:22:53.373Z,11.07
2023-02-08T18:25:21.729Z,12.35
2023-02-08T18:27:49.820Z,11.18
2023-02-08T18:30:17.614Z,11.18
2023-02-08T18:32:45.844Z,10.55
2023-02-08T18:35:13.606Z,11.02
2023-02-08T18:37:41.752Z,12.32
2023-02-08T18:40:10.577Z,11.38
2023-02-08T18:42:38.311Z,11.68
2023-02-08T18:45:07.482Z,10.93
2023-02-08T18:47:40.570Z,13.18
2023-02-08T18:50:10.231Z,12.60
2023-02-08T18:52:37.958Z,11.75
2023-02-08T18:55:05.998Z,11.85
2023-02-08T18:57:33.721Z,10.73
2023-02-08T19:00:01.520Z,11.18
2023-02-08T19:02:29.280Z,10.57
2023-02-08T19:04:57.244Z,10.10
2023-02-08T19:07:25.020Z,11.05
2023-02-08T19:09:52.905Z,9.75
2023-02-08T19:12:22.178Z,10.75
2023-02-08T19:14:51.895Z,9.60
2023-02-08T19:17:20.620Z,10.65
2023-02-08T19:19:48.512Z,10.00
2023-02-08T19:22:16.301Z,9.85
2023-02-08T19:24:44.176Z,11.00
2023-02-08T19:27:12.008Z,8.43
2023-02-08T19:29:39.862Z,10.52
2023-02-08T19:32:09.216Z,9.98
2023-02-08T19:34:36.960Z,9.23
2023-02-08T19:37:04.797Z,10.30
2023-02-08T19:39:32.799Z,9.77
2023-02-08T19:42:00.629Z,10.70
2023-02-08T19:44:30.606Z,11.32
2023-02-08T19:46:59.036Z,10.77
2023-02-08T19:49:28.532Z,9.32
2023-02-08T19:51:56.871Z,12.27
2023-02-08T19:54:24.958Z,10.98
2023-02-08T19:56:55.636Z,10.77
2023-02-08T19:59:29.586Z,10.93
2023-02-08T20:01:57.557Z,10.25
2023-02-08T20:04:26.091Z,11.52
2023-02-08T20:06:54.809Z,11.48
2023-02-08T20:09:23.080Z,10.77
2023-02-08T20:11:57.871Z,10.50
2023-02-08T20:14:27.278Z,10.68
2023-02-08T20:16:55.107Z,11.70
2023-02-08T20:19:22.936Z,11.10
2023-02-08T20:21:50.914Z,10.65
2023-02-08T20:24:20.821Z,11.25
2023-02-08T20:26:50.433Z,10.77
2023-02-08T20:29:18.994Z,12.48
2023-02-08T20:31:49.607Z,11.40
2023-02-08T20:34:19.789Z,11.43
2023-02-08T20:37:05.874Z,11.50
2023-02-08T20:39:35.603Z,10.70
2023-02-08T20:42:04.258Z,10.65
2023-02-08T20:44:32.859Z,11.27
2023-02-08T20:47:01.074Z,11.55
2023-02-08T20:49:29.100Z,11.05
2023-02-08T20:51:57.143Z,10.57
2023-02-08T20:54:25.609Z,12.82
2023-02-08T20:56:54.372Z,13.48
2023-02-08T20:59:22.497Z,10.60
2023-02-08T21:01:50.809Z,13.18
2023-02-08T21:04:20.914Z,13.90
2023-02-08T21:06:48.760Z,13.50
2023-02-08T21:09:19.038Z,11.38
2023-02-08T21:11:48.348Z,12.43
2023-02-08T21:14:19.948Z,13.00
2023-02-08T21:16:49.693Z,11.88
2023-02-08T21:19:18.361Z,11.77
2023-02-08T21:21:46.530Z,12.95
2023-02-08T21:24:14.264Z,11.82
2023-02-08T21:26:42.115Z,13.35
2023-02-08T21:29:09.952Z,13.30
2023-02-08T21:31:38.105Z,12.15
2023-02-08T21:34:07.306Z,14.52
2023-02-08T21:36:35.881Z,13.60
2023-02-08T21:39:04.510Z,12.98
2023-02-08T21:41:34.980Z,14.40
2023-02-08T21:44:05.116Z,11.45
2023-02-08T21:46:33.687Z,12.32
2023-02-08T21:49:20.582Z,11.15
2023-02-08T21:52:07.096Z,13.70
2023-02-08T21:54:42.697Z,12.50
2023-02-08T21:57:15.577Z,11.27
2023-02-08T21:59:44.347Z,11.70
2023-02-08T22:02:22.941Z,11.57
2023-02-08T22:04:50.858Z,13.38
2023-02-08T22:07:18.950Z,11.88
2023-02-08T22:09:46.680Z,12.40
2023-02-08T22:12:17.339Z,13.18
2023-02-08T22:14:45.279Z,14.07
2023-02-08T22:17:13.309Z,15.68
2023-02-08T22:19:42.478Z,19.12
2023-02-08T22:22:11.491Z,15.98
2023-02-08T22:24:39.578Z,15.85
2023-02-08T22:27:07.353Z,15.55
2023-02-08T22:29:35.153Z,15.55
2023-02-08T22:32:03.151Z,14.77
2023-02-08T22:34:30.942Z,14.13
2023-02-08T22:36:58.994Z,12.30
2023-02-08T22:39:26.954Z,13.00
2023-02-08T22:41:54.837Z,14.18
2023-02-08T22:44:22.558Z,15.25
2023-02-08T22:46:50.466Z,14.02
2023-02-08T22:49:18.120Z,12.18
2023-02-08T22:51:45.999Z,11.88
2023-02-08T22:54:13.753Z,12.05
2023-02-08T22:56:41.415Z,13.05
2023-02-08T22:59:09.236Z,11.77
2023-02-08T23:01:37.917Z,13.20
2023-02-08T23:04:06.162Z,13.23
2023-02-08T23:06:34.212Z,12.75
2023-02-08T23:09:02.322Z,13.10
2023-02-08T23:11:30.210Z,14.95
2023-02-08T23:13:58.072Z,12.18
2023-02-08T23:16:25.833Z,11.70
2023-02-08T23:18:53.658Z,12.80
2023-02-08T23:21:22.559Z,12.93
2023-02-08T23:23:50.641Z,14.95
2023-02-08T23:26:21.345Z,14.23
2023-02-08T23:28:51.930Z,15.88
2023-02-08T23:31:21.605Z,13.60
2023-02-08T23:33:49.884Z,13.50
2023-02-08T23:36:22.218Z,12.50
2023-02-08T23:38:51.452Z,13.70
2023-02-08T23:41:21.580Z,14.00
2023-02-08T23:43:51.737Z,13.82
2023-02-08T23:46:22.238Z,13.13
2023-02-08T23:48:50.765Z,11.75
2023-02-08T23:51:20.446Z,12.85
2023-02-08T23:53:49.179Z,12.40
2023-02-08T23:56:18.685Z,12.30
2023-02-08T23:58:48.654Z,12.13
